Terminal Aerodrome Forecast
Issued by NWS

Home | Current Version | Previous Version | Text Only | Print | Product List | Glossary On
Versions: 1 2 3 4 5 6 7 8 9 10 11 12
106
FTUS43 KPAH 231720
TAFCGI
TAF
KCGI 231720Z 2318/2418 VRB05KT P6SM VCSH SCT040 BKN100
     FM240300 30006KT 6SM -SHRA SCT025 BKN050
     FM240900 31005KT 5SM BR VCSH BKN015
     FM241500 31007KT P6SM VCSH SCT015 BKN025=

USA.gov is the U.S. government's official web portal to all federal, state and local government web resources and services.